createdAt,value
2019-05-19T00:00:06.869Z,0.00
2019-05-19T00:01:06.845Z,0.00
2019-05-19T00:02:06.836Z,0.00
2019-05-19T00:03:06.823Z,0.00
2019-05-19T00:04:06.818Z,0.00
2019-05-19T00:05:06.818Z,0.00
2019-05-19T00:06:06.792Z,0.00
2019-05-19T00:07:06.779Z,0.00
2019-05-19T00:08:06.775Z,0.00
2019-05-19T00:09:06.763Z,0.00
2019-05-19T00:10:06.797Z,0.00
2019-05-19T00:11:06.740Z,0.00
2019-05-19T00:12:06.727Z,0.00
2019-05-19T00:13:06.719Z,0.00
2019-05-19T00:14:06.708Z,0.00
2019-05-19T00:15:06.737Z,0.00
2019-05-19T00:16:16.999Z,0.00
2019-05-19T00:17:06.679Z,0.00
2019-05-19T00:18:06.665Z,0.00
2019-05-19T00:19:06.652Z,0.00
2019-05-19T00:20:06.640Z,0.00
2019-05-19T00:21:06.654Z,0.00
2019-05-19T00:22:06.623Z,0.00
2019-05-19T00:23:06.605Z,0.00
2019-05-19T00:24:06.602Z,0.00
2019-05-19T00:25:06.585Z,0.00
2019-05-19T00:26:06.581Z,0.00
2019-05-19T00:27:06.593Z,0.00
2019-05-19T00:28:06.554Z,0.00
2019-05-19T00:29:06.545Z,0.00
2019-05-19T00:30:06.536Z,0.00
2019-05-19T00:31:06.520Z,0.00
2019-05-19T00:32:06.521Z,0.00
2019-05-19T00:33:06.511Z,0.00
2019-05-19T00:34:06.494Z,0.00
2019-05-19T00:35:06.479Z,0.00
2019-05-19T00:36:06.470Z,0.00
2019-05-19T00:37:06.474Z,0.00
2019-05-19T00:38:06.480Z,0.00
2019-05-19T00:39:06.433Z,0.00
2019-05-19T00:40:06.434Z,0.00
2019-05-19T00:41:06.415Z,0.00
2019-05-19T00:42:06.403Z,0.00
2019-05-19T00:43:06.395Z,0.00
2019-05-19T00:44:06.387Z,0.00
2019-05-19T00:45:06.375Z,0.00
2019-05-19T00:46:06.361Z,0.00
2019-05-19T00:47:16.388Z,0.00
2019-05-19T00:48:06.335Z,0.00
2019-05-19T00:49:06.338Z,0.00
2019-05-19T00:50:06.328Z,0.00
2019-05-19T00:51:06.312Z,0.00
2019-05-19T00:52:06.301Z,0.00
2019-05-19T00:53:06.283Z,0.00
2019-05-19T00:54:06.312Z,0.00
2019-05-19T00:55:06.270Z,0.00
2019-05-19T00:56:06.315Z,0.00
2019-05-19T00:57:06.237Z,0.00
2019-05-19T00:58:06.234Z,0.00
2019-05-19T00:59:06.222Z,0.00
2019-05-19T01:00:06.222Z,0.00
2019-05-19T01:01:06.199Z,0.00
2019-05-19T01:02:06.184Z,0.00
2019-05-19T01:03:06.178Z,0.00
2019-05-19T01:04:06.163Z,0.00
2019-05-19T01:05:06.170Z,0.00
2019-05-19T01:06:06.144Z,0.00
2019-05-19T01:07:06.148Z,0.00
2019-05-19T01:08:06.123Z,0.00
2019-05-19T01:09:06.110Z,0.00
2019-05-19T01:10:06.096Z,0.00
2019-05-19T01:11:06.122Z,0.00
2019-05-19T01:12:06.089Z,0.00
2019-05-19T01:13:06.072Z,0.00
2019-05-19T01:14:06.054Z,0.00
2019-05-19T01:15:06.045Z,0.00
2019-05-19T01:16:06.042Z,0.00
2019-05-19T01:17:06.063Z,0.00
2019-05-19T01:18:16.567Z,0.00
2019-05-19T01:19:05.997Z,0.00
2019-05-19T01:20:05.992Z,0.00
2019-05-19T01:21:05.981Z,0.00
2019-05-19T01:22:05.986Z,0.00
2019-05-19T01:23:05.971Z,0.00
2019-05-19T01:24:05.954Z,0.00
2019-05-19T01:25:05.940Z,0.00
2019-05-19T01:26:05.935Z,0.00
2019-05-19T01:27:05.920Z,0.00
2019-05-19T01:28:05.917Z,0.00
2019-05-19T01:29:05.894Z,0.00
2019-05-19T01:31:05.868Z,0.00
2019-05-19T01:32:05.876Z,0.00
2019-05-19T01:33:05.847Z,0.00
2019-05-19T01:34:05.841Z,0.00
2019-05-19T01:35:05.829Z,0.00
2019-05-19T01:36:05.817Z,0.00
2019-05-19T01:37:05.816Z,0.00
2019-05-19T01:38:05.842Z,0.00
2019-05-19T01:39:05.792Z,0.00
2019-05-19T01:40:05.778Z,0.00
2019-05-19T01:41:05.762Z,0.00
2019-05-19T01:42:05.749Z,0.00
2019-05-19T01:43:05.776Z,0.00
2019-05-19T01:44:05.728Z,0.00
2019-05-19T01:45:05.723Z,0.00
2019-05-19T01:46:05.715Z,0.00
2019-05-19T01:47:05.714Z,0.00
2019-05-19T01:48:05.691Z,0.00
2019-05-19T01:49:15.875Z,0.00
2019-05-19T01:50:17.574Z,0.00
2019-05-19T01:51:06.655Z,0.00
2019-05-19T01:52:05.647Z,0.00
2019-05-19T01:53:05.631Z,0.00
2019-05-19T01:54:05.643Z,0.00
2019-05-19T01:55:05.608Z,0.00
2019-05-19T01:56:05.601Z,0.00
2019-05-19T01:57:05.591Z,0.00
2019-05-19T01:58:05.582Z,0.00
2019-05-19T01:59:05.577Z,0.00
2019-05-19T02:00:05.572Z,0.00
2019-05-19T02:01:05.546Z,0.00
2019-05-19T02:02:05.539Z,0.00
2019-05-19T02:03:05.526Z,0.00
2019-05-19T02:04:05.515Z,0.00
2019-05-19T02:05:05.571Z,0.00
2019-05-19T02:06:05.498Z,0.00
2019-05-19T02:07:05.480Z,0.00
2019-05-19T02:08:05.468Z,0.00
2019-05-19T02:09:05.465Z,0.00
2019-05-19T02:10:05.449Z,0.00
2019-05-19T02:11:05.447Z,0.00
2019-05-19T02:12:05.426Z,0.00
2019-05-19T02:13:05.466Z,0.00
2019-05-19T02:14:05.404Z,0.00
2019-05-19T02:15:05.414Z,0.00
2019-05-19T02:16:05.394Z,0.00
2019-05-19T02:17:05.370Z,0.00
2019-05-19T02:18:05.366Z,0.00
2019-05-19T02:19:05.358Z,0.00
2019-05-19T02:20:15.927Z,0.00
2019-05-19T02:21:05.331Z,0.00
2019-05-19T02:22:05.317Z,0.00
2019-05-19T02:23:05.309Z,0.00
2019-05-19T02:24:05.304Z,0.00
2019-05-19T02:25:05.284Z,0.00
2019-05-19T02:26:05.291Z,0.00
2019-05-19T02:27:05.272Z,0.00
2019-05-19T02:28:05.250Z,0.00
2019-05-19T02:29:05.245Z,0.00
2019-05-19T02:30:05.231Z,0.00
2019-05-19T02:31:05.227Z,0.00
2019-05-19T02:32:05.215Z,0.00
2019-05-19T02:33:05.199Z,0.00
2019-05-19T02:34:05.189Z,0.00
2019-05-19T02:35:05.174Z,0.00
2019-05-19T02:36:05.170Z,0.00
2019-05-19T02:37:05.164Z,0.00
2019-05-19T02:38:05.150Z,0.00
2019-05-19T02:39:05.131Z,0.00
2019-05-19T02:40:05.128Z,0.00
2019-05-19T02:41:05.113Z,0.00
2019-05-19T02:42:05.158Z,0.00
2019-05-19T02:43:05.138Z,0.00
2019-05-19T02:44:05.084Z,0.00
2019-05-19T02:45:05.069Z,0.00
2019-05-19T02:46:05.060Z,0.00
2019-05-19T02:47:05.056Z,0.00
2019-05-19T02:48:05.039Z,0.00
2019-05-19T02:49:05.038Z,0.00
2019-05-19T02:50:05.041Z,0.00
2019-05-19T02:51:15.661Z,0.00
2019-05-19T02:52:05.016Z,0.00
2019-05-19T02:53:04.996Z,0.00
2019-05-19T02:54:04.970Z,0.00
2019-05-19T02:55:04.966Z,0.00
2019-05-19T02:56:04.951Z,0.00
2019-05-19T02:57:04.940Z,0.00
2019-05-19T02:58:04.953Z,0.00
2019-05-19T02:59:04.928Z,0.00
2019-05-19T03:00:04.919Z,0.00
2019-05-19T03:01:04.895Z,0.00
2019-05-19T03:02:04.889Z,0.00
2019-05-19T03:03:04.873Z,0.00
2019-05-19T03:04:04.870Z,0.00
2019-05-19T03:05:04.855Z,0.00
2019-05-19T03:06:04.838Z,0.00
2019-05-19T03:07:04.832Z,0.00
2019-05-19T03:08:04.819Z,0.00
2019-05-19T03:09:04.814Z,0.00
2019-05-19T03:10:04.803Z,0.00
2019-05-19T03:11:04.791Z,0.00
2019-05-19T03:12:04.774Z,0.00
2019-05-19T03:13:04.762Z,0.00
2019-05-19T03:14:04.759Z,0.00
2019-05-19T03:15:04.762Z,0.00
2019-05-19T03:16:04.739Z,0.00
2019-05-19T03:17:04.727Z,0.00
2019-05-19T03:18:04.717Z,0.00
2019-05-19T03:19:04.697Z,0.00
2019-05-19T03:20:04.703Z,0.00
2019-05-19T03:21:10.842Z,0.00
2019-05-19T03:23:18.061Z,0.00
2019-05-19T03:24:18.045Z,0.00
2019-05-19T03:25:18.077Z,0.00
2019-05-19T03:26:18.022Z,0.00
2019-05-19T03:27:18.019Z,0.00
2019-05-19T03:28:18.004Z,0.00
2019-05-19T03:29:17.994Z,0.00
2019-05-19T03:30:17.988Z,0.00
2019-05-19T03:31:17.983Z,0.00
2019-05-19T03:32:17.965Z,0.00
2019-05-19T03:33:17.961Z,0.00
2019-05-19T03:34:17.938Z,0.00
2019-05-19T03:35:17.941Z,0.00
2019-05-19T03:36:17.958Z,0.00
2019-05-19T03:37:17.908Z,0.00
2019-05-19T03:38:17.900Z,0.00
2019-05-19T03:39:17.883Z,0.00
2019-05-19T03:40:17.873Z,0.00
2019-05-19T03:41:17.873Z,0.00
2019-05-19T03:42:17.864Z,0.00
2019-05-19T03:43:17.843Z,0.00
2019-05-19T03:44:17.830Z,0.00
2019-05-19T03:45:17.821Z,0.00
2019-05-19T03:46:17.810Z,0.00
2019-05-19T03:47:17.814Z,0.00
2019-05-19T03:48:17.837Z,0.00
2019-05-19T03:49:17.783Z,0.00
2019-05-19T03:50:17.764Z,0.00
2019-05-19T03:51:30.401Z,0.00
2019-05-19T03:52:18.751Z,0.00
2019-05-19T03:53:25.171Z,0.00
2019-05-19T03:54:17.719Z,0.00
2019-05-19T03:55:17.710Z,0.00
2019-05-19T03:56:17.703Z,0.00
2019-05-19T03:57:17.690Z,0.00
2019-05-19T03:58:17.686Z,0.00
2019-05-19T03:59:17.681Z,0.00
2019-05-19T04:00:17.656Z,0.00
2019-05-19T04:01:17.662Z,0.00
2019-05-19T04:02:17.633Z,0.00
2019-05-19T04:03:17.623Z,0.00
2019-05-19T04:04:17.632Z,0.00
2019-05-19T04:05:17.615Z,0.00
2019-05-19T04:06:17.599Z,0.00
2019-05-19T04:07:17.593Z,0.00
2019-05-19T04:08:17.574Z,0.00
2019-05-19T04:09:17.717Z,0.00
2019-05-19T04:10:17.568Z,0.00
2019-05-19T04:11:17.539Z,0.00
2019-05-19T04:12:17.533Z,0.00
2019-05-19T04:13:17.514Z,0.00
2019-05-19T04:14:17.505Z,0.00
2019-05-19T04:15:17.505Z,0.00
2019-05-19T04:16:17.497Z,0.00
2019-05-19T04:17:17.480Z,0.00
2019-05-19T04:18:17.471Z,0.00
2019-05-19T04:19:17.453Z,0.00
2019-05-19T04:20:17.445Z,0.00
2019-05-19T04:21:17.465Z,0.00
2019-05-19T04:22:17.422Z,0.00
2019-05-19T04:23:17.423Z,0.00
2019-05-19T04:24:27.762Z,0.00
2019-05-19T04:25:17.387Z,0.00
2019-05-19T04:26:17.377Z,0.00
2019-05-19T04:27:17.377Z,0.00
2019-05-19T04:28:17.437Z,0.00
2019-05-19T04:29:17.345Z,0.00
2019-05-19T04:30:17.335Z,0.00
2019-05-19T04:31:17.349Z,0.00
2019-05-19T04:32:17.316Z,0.00
2019-05-19T04:33:17.300Z,0.00
2019-05-19T04:34:17.293Z,0.00
2019-05-19T04:35:17.283Z,0.00
2019-05-19T04:36:17.309Z,0.00
2019-05-19T04:37:17.260Z,0.00
2019-05-19T04:38:17.248Z,0.00
2019-05-19T04:39:17.236Z,0.00
2019-05-19T04:40:17.228Z,0.00
2019-05-19T04:41:17.216Z,0.00
2019-05-19T04:42:17.292Z,0.00
2019-05-19T04:43:17.193Z,0.00
2019-05-19T04:44:17.188Z,0.00
2019-05-19T04:45:17.170Z,0.00
2019-05-19T04:46:17.162Z,0.00
2019-05-19T04:47:17.164Z,0.00
2019-05-19T04:48:17.149Z,0.00
2019-05-19T04:49:17.133Z,0.00
2019-05-19T04:50:17.132Z,0.00
2019-05-19T04:51:17.106Z,0.00
2019-05-19T04:52:17.099Z,0.00
2019-05-19T04:53:17.102Z,0.00
2019-05-19T04:54:17.085Z,0.00
2019-05-19T04:55:27.530Z,0.00
2019-05-19T04:56:19.719Z,0.00
2019-05-19T04:57:17.047Z,0.00
2019-05-19T04:58:17.043Z,0.00
2019-05-19T04:59:17.048Z,0.00
2019-05-19T05:00:17.010Z,0.00
2019-05-19T05:01:17.002Z,0.00
2019-05-19T05:02:16.985Z,0.00
2019-05-19T05:03:16.995Z,0.00
2019-05-19T05:04:17.000Z,0.00
2019-05-19T05:05:16.959Z,0.00
2019-05-19T05:06:16.944Z,0.00
2019-05-19T05:07:16.932Z,0.00
2019-05-19T05:08:28.635Z,0.00
2019-05-19T05:09:17.957Z,0.00
2019-05-19T05:10:16.896Z,0.00
2019-05-19T05:11:16.885Z,0.00
2019-05-19T05:12:16.880Z,0.00
2019-05-19T05:13:16.877Z,0.00
2019-05-19T05:14:16.863Z,0.00
2019-05-19T05:15:16.868Z,0.00
2019-05-19T05:16:16.838Z,0.00
2019-05-19T05:17:16.822Z,0.00
2019-05-19T05:18:16.816Z,0.00
2019-05-19T05:19:16.814Z,0.00
2019-05-19T05:20:16.798Z,0.00
2019-05-19T05:21:16.776Z,0.00
2019-05-19T05:22:22.092Z,0.00
2019-05-19T05:23:17.765Z,0.00
2019-05-19T05:24:16.751Z,0.00
2019-05-19T05:25:16.751Z,0.00
2019-05-19T05:26:26.537Z,0.00
2019-05-19T05:27:16.711Z,0.00
2019-05-19T05:28:16.700Z,0.00
2019-05-19T05:29:16.692Z,0.00
2019-05-19T05:30:16.685Z,0.00
2019-05-19T05:31:16.710Z,0.00
2019-05-19T05:32:16.705Z,0.00
2019-05-19T05:33:16.657Z,0.00
2019-05-19T05:34:16.640Z,0.00
2019-05-19T05:35:16.629Z,0.00
2019-05-19T05:36:16.619Z,0.00
2019-05-19T05:37:16.616Z,0.00
2019-05-19T05:38:16.593Z,0.00
2019-05-19T05:39:16.583Z,0.00
2019-05-19T05:40:16.578Z,0.00
2019-05-19T05:41:16.582Z,0.00
2019-05-19T05:42:16.566Z,0.00
2019-05-19T05:43:16.541Z,0.00
2019-05-19T05:44:16.532Z,0.00
2019-05-19T05:45:16.519Z,0.00
2019-05-19T05:46:16.513Z,0.00
2019-05-19T05:47:16.518Z,0.00
2019-05-19T05:48:16.485Z,0.00
2019-05-19T05:49:16.476Z,0.00
2019-05-19T05:50:16.467Z,0.00
2019-05-19T05:51:16.458Z,0.00
2019-05-19T05:52:16.447Z,0.00
2019-05-19T05:53:16.442Z,0.00
2019-05-19T05:54:16.432Z,0.00
2019-05-19T05:55:16.409Z,0.00
2019-05-19T05:56:16.397Z,0.00
2019-05-19T05:57:26.601Z,0.00
2019-05-19T05:58:16.395Z,0.00
2019-05-19T05:59:16.371Z,0.00
2019-05-19T06:00:16.363Z,0.00
2019-05-19T06:01:16.346Z,0.00
2019-05-19T06:02:16.339Z,0.00
2019-05-19T06:03:16.327Z,0.00
2019-05-19T06:04:16.322Z,0.00
2019-05-19T06:05:16.301Z,0.00
2019-05-19T06:06:16.294Z,0.00
2019-05-19T06:07:16.283Z,0.00
2019-05-19T06:08:16.274Z,0.00
2019-05-19T06:09:16.266Z,0.00
2019-05-19T06:10:16.275Z,0.00
2019-05-19T06:11:16.239Z,0.00
2019-05-19T06:12:16.224Z,0.00
2019-05-19T06:13:16.217Z,0.00
2019-05-19T06:14:16.243Z,0.00
2019-05-19T06:15:16.192Z,0.00
2019-05-19T06:16:16.185Z,0.00
2019-05-19T06:17:16.172Z,0.00
2019-05-19T06:18:16.164Z,0.00
2019-05-19T06:19:23.792Z,0.00
2019-05-19T06:20:16.140Z,0.00
2019-05-19T06:21:16.136Z,0.00
2019-05-19T06:22:16.119Z,0.00
2019-05-19T06:23:16.113Z,0.00
2019-05-19T06:24:16.100Z,0.00
2019-05-19T06:25:16.146Z,0.00
2019-05-19T06:26:16.078Z,0.00
2019-05-19T06:27:16.066Z,0.00
2019-05-19T06:28:16.063Z,0.00
2019-05-19T06:29:16.043Z,0.00
2019-05-19T06:30:16.030Z,0.00
2019-05-19T06:31:16.062Z,0.00
2019-05-19T06:32:16.009Z,0.00
2019-05-19T06:33:23.283Z,0.00
2019-05-19T06:34:15.991Z,0.00
2019-05-19T06:35:15.981Z,0.00
2019-05-19T06:36:15.964Z,0.00
2019-05-19T06:37:15.969Z,0.00
2019-05-19T06:38:15.945Z,0.00
2019-05-19T06:39:15.946Z,0.00
2019-05-19T06:40:15.939Z,0.00
2019-05-19T06:41:15.913Z,0.00
2019-05-19T06:42:15.936Z,0.00
2019-05-19T06:43:15.892Z,0.00
2019-05-19T06:44:15.877Z,0.00
2019-05-19T06:45:15.866Z,0.00
2019-05-19T06:46:15.862Z,0.00
2019-05-19T06:47:15.852Z,0.00
2019-05-19T06:48:15.845Z,0.00
2019-05-19T06:49:15.823Z,0.00
2019-05-19T06:50:15.815Z,0.00
2019-05-19T06:51:15.805Z,0.00
2019-05-19T06:52:15.798Z,0.00
2019-05-19T06:53:15.792Z,0.00
2019-05-19T06:54:15.816Z,0.00
2019-05-19T06:55:15.762Z,0.00
2019-05-19T06:56:15.747Z,0.00
2019-05-19T06:57:15.751Z,0.00
2019-05-19T06:58:15.728Z,0.00
2019-05-19T06:59:15.715Z,0.00
2019-05-19T07:00:15.746Z,0.00
2019-05-19T07:01:15.701Z,0.00
2019-05-19T07:02:15.687Z,0.00
2019-05-19T07:03:15.677Z,0.00
2019-05-19T07:04:26.295Z,0.00
2019-05-19T07:05:15.649Z,0.00
2019-05-19T07:06:15.688Z,0.00
2019-05-19T07:07:15.675Z,0.00
2019-05-19T07:08:15.704Z,0.00
2019-05-19T07:09:15.619Z,0.00
2019-05-19T07:10:15.609Z,0.00
2019-05-19T07:11:22.854Z,0.00
2019-05-19T07:12:15.586Z,0.00
2019-05-19T07:13:15.563Z,0.00
2019-05-19T07:14:15.561Z,0.00
2019-05-19T07:15:15.545Z,0.00
2019-05-19T07:16:15.558Z,0.00
2019-05-19T07:17:15.540Z,0.00
2019-05-19T07:18:15.516Z,0.00
2019-05-19T07:19:15.500Z,0.00
2019-05-19T07:20:15.490Z,0.00
2019-05-19T07:21:15.483Z,0.00
2019-05-19T07:22:15.475Z,0.00
2019-05-19T07:23:27.347Z,0.00
2019-05-19T07:24:16.447Z,0.00
2019-05-19T07:25:15.439Z,0.00
2019-05-19T07:26:15.430Z,0.00
2019-05-19T07:27:15.423Z,0.00
2019-05-19T07:28:15.405Z,0.00
2019-05-19T07:29:15.395Z,0.00
2019-05-19T07:30:15.384Z,0.00
2019-05-19T07:31:15.374Z,0.00
2019-05-19T07:32:15.388Z,0.00
2019-05-19T07:33:15.357Z,0.00
2019-05-19T07:34:15.339Z,0.00
2019-05-19T07:35:15.333Z,0.00
2019-05-19T07:36:15.323Z,0.00
2019-05-19T07:37:15.323Z,0.00
2019-05-19T07:38:15.302Z,0.00
2019-05-19T07:39:15.287Z,0.00
2019-05-19T07:40:15.280Z,0.00
2019-05-19T07:41:15.269Z,0.00
2019-05-19T07:42:25.384Z,0.00
2019-05-19T07:43:15.273Z,0.00
2019-05-19T07:44:15.244Z,0.00
2019-05-19T07:45:15.237Z,0.00
2019-05-19T07:46:15.211Z,0.00
2019-05-19T07:47:15.207Z,0.00
2019-05-19T07:48:15.262Z,0.00
2019-05-19T07:49:15.179Z,0.00
2019-05-19T07:50:15.183Z,0.00
2019-05-19T07:51:15.153Z,0.00
2019-05-19T07:52:15.148Z,0.00
2019-05-19T07:53:15.155Z,0.00
2019-05-19T07:54:15.165Z,0.00
2019-05-19T07:55:22.401Z,0.00
2019-05-19T07:56:15.104Z,0.00
2019-05-19T07:57:15.092Z,0.00
2019-05-19T07:58:15.077Z,0.00
2019-05-19T07:59:15.078Z,0.00
2019-05-19T08:00:15.078Z,0.00
2019-05-19T08:01:15.052Z,0.00
2019-05-19T08:02:15.037Z,0.00
2019-05-19T08:03:15.025Z,0.00
2019-05-19T08:04:15.021Z,0.00
2019-05-19T08:05:15.016Z,0.00
2019-05-19T08:06:15.017Z,0.00
2019-05-19T08:07:15.884Z,0.00
2019-05-19T08:08:14.975Z,0.00
2019-05-19T08:09:14.993Z,0.00
2019-05-19T08:10:14.954Z,0.00
2019-05-19T08:11:14.948Z,0.00
2019-05-19T08:12:14.929Z,0.00
2019-05-19T08:13:14.914Z,0.00
2019-05-19T08:14:14.910Z,0.00
2019-05-19T08:15:14.894Z,0.00
2019-05-19T08:16:14.897Z,0.00
2019-05-19T08:17:14.871Z,0.00
2019-05-19T08:18:14.868Z,0.00
2019-05-19T08:19:14.855Z,0.00
2019-05-19T08:20:14.847Z,0.00
2019-05-19T08:21:14.846Z,0.00
2019-05-19T08:22:14.825Z,0.00
2019-05-19T08:23:14.807Z,0.00
2019-05-19T08:24:14.801Z,0.00
2019-05-19T08:25:14.861Z,0.00
2019-05-19T08:26:24.961Z,0.00
2019-05-19T08:27:14.772Z,0.00
2019-05-19T08:28:14.757Z,0.00
2019-05-19T08:29:14.750Z,0.00
2019-05-19T08:30:14.734Z,0.00
2019-05-19T08:31:14.736Z,0.00
2019-05-19T08:32:14.753Z,0.00
2019-05-19T08:33:14.706Z,0.00
2019-05-19T08:34:14.713Z,0.00
2019-05-19T08:35:14.683Z,0.00
2019-05-19T08:36:14.678Z,0.00
2019-05-19T08:37:14.696Z,0.00
2019-05-19T08:38:14.654Z,0.00
2019-05-19T08:39:14.640Z,0.00
2019-05-19T08:40:14.627Z,0.00
2019-05-19T08:41:14.617Z,0.00
2019-05-19T08:42:14.602Z,0.00
2019-05-19T08:43:14.603Z,0.00
2019-05-19T08:44:14.596Z,0.00
2019-05-19T08:45:14.572Z,0.00
2019-05-19T08:46:14.562Z,0.00
2019-05-19T08:47:14.551Z,0.00
2019-05-19T08:48:21.960Z,0.00
2019-05-19T08:49:14.541Z,0.00
2019-05-19T08:50:21.508Z,0.00
2019-05-19T08:51:14.502Z,0.00
2019-05-19T08:52:14.493Z,0.00
2019-05-19T08:53:14.481Z,0.00
2019-05-19T08:54:18.321Z,0.00
2019-05-19T08:55:14.473Z,0.00
2019-05-19T08:56:14.448Z,0.00
2019-05-19T08:57:14.443Z,0.00
2019-05-19T08:58:14.433Z,0.00
2019-05-19T08:59:14.427Z,0.00
2019-05-19T09:00:14.416Z,0.00
2019-05-19T09:01:14.407Z,0.00
2019-05-19T09:02:14.395Z,0.00
2019-05-19T09:03:14.378Z,0.00
2019-05-19T09:04:14.367Z,0.00
2019-05-19T09:05:14.356Z,0.00
2019-05-19T09:06:14.378Z,0.00
2019-05-19T09:07:14.333Z,0.00
2019-05-19T09:08:14.325Z,0.00
2019-05-19T09:09:14.311Z,0.00
2019-05-19T09:10:14.305Z,0.00
2019-05-19T09:11:14.291Z,0.00
2019-05-19T09:12:14.304Z,0.00
2019-05-19T09:13:14.271Z,0.00
2019-05-19T09:14:14.260Z,0.00
2019-05-19T09:15:14.246Z,5.62
2019-05-19T09:16:14.272Z,5.62
2019-05-19T09:17:14.264Z,5.62
2019-05-19T09:18:14.215Z,5.62
2019-05-19T09:19:14.210Z,5.62
2019-05-19T09:20:14.197Z,5.62
2019-05-19T09:21:26.041Z,5.62
2019-05-19T09:22:14.173Z,5.62
2019-05-19T09:23:23.562Z,5.62
2019-05-19T09:24:29.265Z,5.62
2019-05-19T09:25:15.140Z,5.62
2019-05-19T09:26:14.126Z,5.62
2019-05-19T09:27:14.134Z,5.62
2019-05-19T09:28:21.597Z,5.62
2019-05-19T09:29:14.133Z,5.62
2019-05-19T09:30:14.086Z,5.62
2019-05-19T09:31:14.118Z,11.25
2019-05-19T09:32:14.070Z,11.25
2019-05-19T09:33:14.059Z,5.62
2019-05-19T09:34:14.041Z,5.62
2019-05-19T09:35:14.027Z,5.62
2019-05-19T09:36:14.023Z,5.62
2019-05-19T09:37:14.006Z,5.62
2019-05-19T09:38:14.045Z,5.62
2019-05-19T09:39:13.989Z,5.62
2019-05-19T09:40:13.979Z,5.62
2019-05-19T09:41:13.969Z,5.62
2019-05-19T09:42:13.954Z,5.62
2019-05-19T09:43:14.043Z,5.62
2019-05-19T09:44:13.982Z,5.62
2019-05-19T09:45:13.993Z,5.62
2019-05-19T09:46:14.114Z,5.62
2019-05-19T09:47:13.935Z,5.62
2019-05-19T09:48:13.935Z,5.62
2019-05-19T09:49:13.917Z,5.62
2019-05-19T09:50:13.871Z,5.62
2019-05-19T09:51:13.853Z,5.62
2019-05-19T09:52:17.012Z,5.62
2019-05-19T09:53:13.845Z,5.62
2019-05-19T09:54:13.835Z,5.62
2019-05-19T09:55:13.826Z,5.62
2019-05-19T09:56:13.801Z,5.62
2019-05-19T09:57:13.794Z,5.62
2019-05-19T09:58:18.718Z,5.62
2019-05-19T10:00:27.952Z,5.62
2019-05-19T10:01:27.935Z,5.62
2019-05-19T10:02:27.920Z,5.62
2019-05-19T10:03:27.910Z,5.62
2019-05-19T10:04:27.898Z,5.62
2019-05-19T10:05:35.240Z,5.62
2019-05-19T10:06:27.877Z,5.62
2019-05-19T10:07:27.869Z,5.62
2019-05-19T10:08:27.855Z,5.62
2019-05-19T10:09:27.853Z,5.62
2019-05-19T10:10:27.839Z,5.62
2019-05-19T10:11:27.849Z,11.25
2019-05-19T10:12:27.813Z,5.62
2019-05-19T10:13:27.801Z,5.62
2019-05-19T10:14:27.795Z,5.62
2019-05-19T10:15:27.782Z,5.62
2019-05-19T10:16:27.768Z,5.62
2019-05-19T10:17:27.783Z,5.62
2019-05-19T10:18:27.753Z,5.62
2019-05-19T10:19:27.742Z,5.62
2019-05-19T10:20:27.729Z,5.62
2019-05-19T10:21:27.721Z,5.62
2019-05-19T10:22:27.722Z,5.62
2019-05-19T10:23:27.693Z,11.25
2019-05-19T10:24:27.691Z,11.25
2019-05-19T10:25:27.676Z,11.25
2019-05-19T10:26:27.668Z,11.25
2019-05-19T10:27:27.697Z,11.25
2019-05-19T10:28:27.645Z,11.25
2019-05-19T10:29:27.685Z,5.62
2019-05-19T10:30:27.620Z,5.62
2019-05-19T10:31:27.611Z,5.62
2019-05-19T10:32:27.601Z,5.62
2019-05-19T10:33:27.598Z,5.62
2019-05-19T10:34:27.583Z,5.62
2019-05-19T10:35:27.567Z,5.62
2019-05-19T10:36:38.048Z,5.62
2019-05-19T10:37:34.837Z,5.62
2019-05-19T10:38:35.867Z,5.62
2019-05-19T10:39:27.526Z,5.62
2019-05-19T10:40:27.525Z,5.62
2019-05-19T10:41:27.505Z,5.62
2019-05-19T10:42:27.491Z,5.62
2019-05-19T10:43:27.493Z,5.62
2019-05-19T10:44:27.512Z,5.62
2019-05-19T10:45:27.459Z,5.62
2019-05-19T10:46:27.465Z,5.62
2019-05-19T10:47:27.439Z,5.62
2019-05-19T10:48:27.435Z,5.62
2019-05-19T10:49:27.418Z,5.62
2019-05-19T10:50:34.877Z,5.62
2019-05-19T10:51:27.399Z,5.62
2019-05-19T10:52:34.679Z,5.62
2019-05-19T10:53:27.376Z,5.62
2019-05-19T10:54:27.366Z,5.62
2019-05-19T10:55:36.029Z,5.62
2019-05-19T10:56:28.360Z,5.62
2019-05-19T10:57:27.334Z,5.62
2019-05-19T10:58:27.327Z,5.62
2019-05-19T10:59:34.298Z,5.62
2019-05-19T11:00:27.301Z,0.00
2019-05-19T11:01:27.309Z,5.62
2019-05-19T11:02:27.278Z,0.00
2019-05-19T11:03:27.278Z,5.62
2019-05-19T11:04:27.266Z,5.62
2019-05-19T11:05:27.251Z,5.62
2019-05-19T11:06:27.238Z,5.62
2019-05-19T11:07:27.296Z,5.62
2019-05-19T11:08:27.215Z,5.62
2019-05-19T11:09:27.213Z,5.62
2019-05-19T11:10:27.193Z,5.62
2019-05-19T11:11:27.199Z,5.62
2019-05-19T11:12:27.182Z,5.62
2019-05-19T11:13:27.177Z,5.62
2019-05-19T11:14:27.158Z,5.62
2019-05-19T11:15:27.144Z,5.62
2019-05-19T11:16:27.169Z,5.62
2019-05-19T11:17:27.125Z,5.62
2019-05-19T11:18:27.116Z,5.62
2019-05-19T11:19:27.100Z,5.62
2019-05-19T11:20:27.087Z,5.62
2019-05-19T11:21:27.078Z,5.62
2019-05-19T11:22:27.074Z,5.62
2019-05-19T11:23:27.066Z,5.62
2019-05-19T11:24:27.048Z,5.62
2019-05-19T11:25:34.160Z,5.62
2019-05-19T11:26:28.024Z,5.62
2019-05-19T11:27:27.058Z,5.62
2019-05-19T11:28:27.012Z,5.62
2019-05-19T11:29:26.997Z,5.62
2019-05-19T11:30:39.124Z,5.62
2019-05-19T11:31:27.019Z,5.62
2019-05-19T11:32:26.964Z,5.62
2019-05-19T11:33:26.962Z,5.62
2019-05-19T11:34:26.945Z,5.62
2019-05-19T11:35:26.932Z,0.00
2019-05-19T11:36:26.925Z,0.00
2019-05-19T11:37:26.916Z,0.00
2019-05-19T11:38:26.914Z,0.00
2019-05-19T11:39:33.914Z,0.00
2019-05-19T11:40:26.873Z,0.00
2019-05-19T11:41:26.868Z,5.62
2019-05-19T11:42:26.854Z,0.00
2019-05-19T11:43:26.841Z,5.62
2019-05-19T11:44:26.871Z,5.62
2019-05-19T11:45:26.821Z,5.62
2019-05-19T11:46:26.809Z,5.62
2019-05-19T11:47:26.804Z,5.62
2019-05-19T11:48:26.790Z,5.62
2019-05-19T11:49:26.807Z,5.62
2019-05-19T11:50:26.783Z,5.62
2019-05-19T11:51:26.756Z,5.62
2019-05-19T11:52:26.754Z,5.62
2019-05-19T11:53:26.743Z,5.62
2019-05-19T11:54:26.730Z,5.62
2019-05-19T11:55:26.737Z,5.62
2019-05-19T11:56:26.712Z,5.62
2019-05-19T11:57:26.699Z,5.62
2019-05-19T11:58:26.688Z,5.62
2019-05-19T11:59:26.679Z,5.62
2019-05-19T12:00:26.667Z,5.62
2019-05-19T12:01:26.672Z,0.00
2019-05-19T12:02:26.652Z,0.00
2019-05-19T12:03:26.629Z,0.00
2019-05-19T12:04:26.621Z,0.00
2019-05-19T12:05:26.640Z,0.00
2019-05-19T12:06:38.516Z,0.00
2019-05-19T12:07:27.630Z,0.00
2019-05-19T12:08:26.578Z,0.00
2019-05-19T12:09:26.574Z,0.00
2019-05-19T12:10:37.205Z,5.62
2019-05-19T12:11:26.546Z,5.62
2019-05-19T12:12:26.537Z,5.62
2019-05-19T12:13:26.539Z,5.62
2019-05-19T12:14:26.512Z,11.25
2019-05-19T12:15:26.517Z,11.25
2019-05-19T12:16:26.492Z,11.25
2019-05-19T12:17:26.581Z,11.25
2019-05-19T12:18:26.486Z,11.25
2019-05-19T12:19:26.465Z,11.25
2019-05-19T12:20:26.451Z,16.88
2019-05-19T12:21:26.453Z,11.25
2019-05-19T12:22:26.429Z,16.88
2019-05-19T12:23:26.434Z,16.88
2019-05-19T12:24:26.415Z,22.50
2019-05-19T12:25:26.400Z,22.50
2019-05-19T12:26:26.386Z,22.50
2019-05-19T12:27:26.373Z,22.50
2019-05-19T12:28:33.477Z,22.50
2019-05-19T12:29:26.352Z,22.50
2019-05-19T12:30:26.352Z,22.50
2019-05-19T12:31:26.957Z,22.50
2019-05-19T12:32:26.330Z,28.12
2019-05-19T12:33:26.324Z,56.25
2019-05-19T12:34:26.315Z,78.75
2019-05-19T12:35:26.291Z,33.75
2019-05-19T12:36:26.283Z,11.25
2019-05-19T12:37:26.269Z,5.62
2019-05-19T12:38:26.263Z,5.62
2019-05-19T12:39:26.283Z,5.62
2019-05-19T12:40:26.239Z,5.62
2019-05-19T12:41:26.228Z,5.62
2019-05-19T12:42:26.216Z,5.62
2019-05-19T12:43:26.209Z,5.62
2019-05-19T12:44:26.193Z,5.62
2019-05-19T12:45:26.200Z,5.62
2019-05-19T12:46:26.175Z,5.62
2019-05-19T12:47:26.164Z,5.62
2019-05-19T12:48:26.157Z,5.62
2019-05-19T12:49:26.139Z,5.62
2019-05-19T12:50:26.175Z,5.62
2019-05-19T12:51:26.919Z,5.62
2019-05-19T12:52:26.111Z,5.62
2019-05-19T12:53:26.105Z,5.62
2019-05-19T12:54:26.096Z,5.62
2019-05-19T12:55:26.076Z,5.62
2019-05-19T12:56:38.761Z,5.62
2019-05-19T12:57:27.061Z,5.62
2019-05-19T12:58:26.052Z,0.00
2019-05-19T12:59:36.219Z,0.00
2019-05-19T13:00:26.041Z,0.00
2019-05-19T13:01:26.012Z,0.00
2019-05-19T13:02:26.015Z,0.00
2019-05-19T13:03:25.990Z,0.00
2019-05-19T13:04:25.987Z,5.62
2019-05-19T13:05:25.969Z,0.00
2019-05-19T13:06:33.540Z,0.00
2019-05-19T13:07:25.954Z,0.00
2019-05-19T13:08:25.948Z,0.00
2019-05-19T13:09:25.930Z,0.00
2019-05-19T13:10:25.920Z,0.00
2019-05-19T13:11:25.910Z,0.00
2019-05-19T13:12:25.938Z,0.00
2019-05-19T13:13:33.483Z,0.00
2019-05-19T13:14:25.874Z,0.00
2019-05-19T13:15:25.867Z,0.00
2019-05-19T13:16:25.860Z,0.00
2019-05-19T13:17:25.847Z,0.00
2019-05-19T13:18:25.883Z,0.00
2019-05-19T13:19:25.882Z,0.00
2019-05-19T13:20:25.814Z,0.00